Terminal Aerodrome Forecast
Issued by NWS

Home | Current Version | Previous Version | Text Only | Print | Product List | Glossary On
Versions: 1 2 3 4 5 6 7 8 9 10 11 12 13 14 15 16 17 18
000
FTUS41 KRLX 252300
TAFCKB
TAF
KCKB 252321Z 2600/2624 23005KT P6SM BKN035
     FM260500 00000KT P6SM SCT035
     FM261000 00000KT P6SM SCT250
     FM261600 20004KT P6SM SKC=

USA.gov is the U.S. government's official web portal to all federal, state and local government web resources and services.